sensor_id;sensor_type;location;lat;lon;timestamp;pressure;altitude;pressure_sealevel;temperature;humidity
60874;BME280;46715;40.642;-7.920;2023-03-01T00:00:15;96621.78;;;4.10;54.60
60874;BME280;46715;40.642;-7.920;2023-03-01T00:02:16;96627.09;;;4.15;53.92
60874;BME280;46715;40.642;-7.920;2023-03-01T00:04:17;96630.25;;;4.17;53.93
60874;BME280;46715;40.642;-7.920;2023-03-01T00:06:19;96628.38;;;4.24;54.08
60874;BME280;46715;40.642;-7.920;2023-03-01T00:08:21;96631.53;;;4.26;53.60
60874;BME280;46715;40.642;-7.920;2023-03-01T00:10:21;96638.84;;;4.30;53.90
60874;BME280;46715;40.642;-7.920;2023-03-01T00:12:23;96635.78;;;4.21;54.20
60874;BME280;46715;40.642;-7.920;2023-03-01T00:14:23;96637.19;;;4.17;54.36
60874;BME280;46715;40.642;-7.920;2023-03-01T00:16:28;96643.34;;;4.16;54.36
60874;BME280;46715;40.642;-7.920;2023-03-01T00:18:29;96652.38;;;4.06;54.14
60874;BME280;46715;40.642;-7.920;2023-03-01T00:20:30;96651.81;;;4.04;55.02
60874;BME280;46715;40.642;-7.920;2023-03-01T00:22:31;96633.41;;;4.01;54.31
60874;BME280;46715;40.642;-7.920;2023-03-01T00:24:31;96630.53;;;3.90;55.30
60874;BME280;46715;40.642;-7.920;2023-03-01T00:26:33;96637.41;;;3.78;55.78
60874;BME280;46715;40.642;-7.920;2023-03-01T00:28:35;96635.03;;;3.77;55.75
60874;BME280;46715;40.642;-7.920;2023-03-01T00:30:35;96633.69;;;3.74;55.96
60874;BME280;46715;40.642;-7.920;2023-03-01T00:32:36;96629.34;;;3.68;56.00
60874;BME280;46715;40.642;-7.920;2023-03-01T00:34:37;96636.75;;;3.64;55.65
60874;BME280;46715;40.642;-7.920;2023-03-01T00:36:38;96643.50;;;3.65;55.86
60874;BME280;46715;40.642;-7.920;2023-03-01T00:38:41;96647.84;;;3.65;55.96
60874;BME280;46715;40.642;-7.920;2023-03-01T00:40:42;96650.06;;;3.61;56.16
60874;BME280;46715;40.642;-7.920;2023-03-01T00:42:43;96654.63;;;3.59;56.34
60874;BME280;46715;40.642;-7.920;2023-03-01T00:44:46;96660.78;;;3.58;55.81
60874;BME280;46715;40.642;-7.920;2023-03-01T00:46:47;96663.91;;;3.67;55.71
60874;BME280;46715;40.642;-7.920;2023-03-01T00:48:48;96661.28;;;3.73;55.15
60874;BME280;46715;40.642;-7.920;2023-03-01T00:50:49;96653.72;;;3.72;55.29
60874;BME280;46715;40.642;-7.920;2023-03-01T00:52:55;96638.69;;;3.69;55.16
60874;BME280;46715;40.642;-7.920;2023-03-01T00:54:56;96638.13;;;3.67;55.43
60874;BME280;46715;40.642;-7.920;2023-03-01T00:56:58;96631.59;;;3.64;55.42
60874;BME280;46715;40.642;-7.920;2023-03-01T00:58:59;96629.13;;;3.51;56.10
60874;BME280;46715;40.642;-7.920;2023-03-01T01:01:00;96638.16;;;3.60;56.19
60874;BME280;46715;40.642;-7.920;2023-03-01T01:03:07;96648.47;;;3.60;55.85
60874;BME280;46715;40.642;-7.920;2023-03-01T01:05:08;96652.00;;;3.66;55.94
60874;BME280;46715;40.642;-7.920;2023-03-01T01:07:09;96647.63;;;3.66;55.91
60874;BME280;46715;40.642;-7.920;2023-03-01T01:09:12;96637.31;;;3.66;55.63
60874;BME280;46715;40.642;-7.920;2023-03-01T01:11:17;96641.53;;;3.61;56.05
60874;BME280;46715;40.642;-7.920;2023-03-01T01:13:18;96638.38;;;3.58;56.06
60874;BME280;46715;40.642;-7.920;2023-03-01T01:15:19;96650.34;;;3.53;56.15
60874;BME280;46715;40.642;-7.920;2023-03-01T01:17:20;96646.69;;;3.61;56.37
60874;BME280;46715;40.642;-7.920;2023-03-01T01:19:21;96653.00;;;3.65;56.33
60874;BME280;46715;40.642;-7.920;2023-03-01T01:21:24;96649.44;;;3.66;55.87
60874;BME280;46715;40.642;-7.920;2023-03-01T01:23:25;96642.41;;;3.73;55.86
60874;BME280;46715;40.642;-7.920;2023-03-01T01:25:25;96628.66;;;3.79;56.21
60874;BME280;46715;40.642;-7.920;2023-03-01T01:27:26;96632.31;;;3.90;55.55
60874;BME280;46715;40.642;-7.920;2023-03-01T01:29:27;96628.13;;;3.96;55.34
60874;BME280;46715;40.642;-7.920;2023-03-01T01:31:28;96629.47;;;4.17;55.31
60874;BME280;46715;40.642;-7.920;2023-03-01T01:33:29;96633.75;;;4.23;55.07
60874;BME280;46715;40.642;-7.920;2023-03-01T01:35:30;96632.97;;;4.04;54.78
60874;BME280;46715;40.642;-7.920;2023-03-01T01:37:31;96636.56;;;4.03;55.17
60874;BME280;46715;40.642;-7.920;2023-03-01T01:39:34;96631.66;;;3.76;55.97
60874;BME280;46715;40.642;-7.920;2023-03-01T01:41:35;96627.25;;;3.58;56.64
60874;BME280;46715;40.642;-7.920;2023-03-01T01:43:38;96619.41;;;3.53;56.82
60874;BME280;46715;40.642;-7.920;2023-03-01T01:45:45;96624.56;;;3.53;56.73
60874;BME280;46715;40.642;-7.920;2023-03-01T01:47:45;96624.81;;;3.45;57.53
60874;BME280;46715;40.642;-7.920;2023-03-01T01:49:51;96622.09;;;3.58;57.08
60874;BME280;46715;40.642;-7.920;2023-03-01T01:52:18;96621.28;;;3.64;56.85
60874;BME280;46715;40.642;-7.920;2023-03-01T01:54:28;96620.66;;;3.87;56.37
60874;BME280;46715;40.642;-7.920;2023-03-01T01:56:30;96606.50;;;3.90;56.62
60874;BME280;46715;40.642;-7.920;2023-03-01T01:58:31;96608.59;;;4.00;56.41
60874;BME280;46715;40.642;-7.920;2023-03-01T02:00:32;96601.59;;;4.07;55.99
60874;BME280;46715;40.642;-7.920;2023-03-01T02:02:33;96594.81;;;4.24;55.72
60874;BME280;46715;40.642;-7.920;2023-03-01T02:04:34;96602.63;;;4.18;55.80
60874;BME280;46715;40.642;-7.920;2023-03-01T02:06:51;96595.69;;;4.18;55.67
60874;BME280;46715;40.642;-7.920;2023-03-01T02:08:57;96590.88;;;4.22;55.62
60874;BME280;46715;40.642;-7.920;2023-03-01T02:11:00;96587.28;;;4.23;55.98
60874;BME280;46715;40.642;-7.920;2023-03-01T02:13:02;96587.06;;;4.24;55.39
60874;BME280;46715;40.642;-7.920;2023-03-01T02:15:04;96582.13;;;4.23;55.55
60874;BME280;46715;40.642;-7.920;2023-03-01T02:17:05;96589.53;;;4.19;56.00
60874;BME280;46715;40.642;-7.920;2023-03-01T02:19:07;96594.06;;;4.05;56.33
60874;BME280;46715;40.642;-7.920;2023-03-01T02:21:35;96585.50;;;4.05;56.23
60874;BME280;46715;40.642;-7.920;2023-03-01T02:23:38;96577.28;;;3.96;56.80
60874;BME280;46715;40.642;-7.920;2023-03-01T02:25:47;96579.78;;;3.84;56.67
60874;BME280;46715;40.642;-7.920;2023-03-01T02:28:08;96572.47;;;4.00;56.43
60874;BME280;46715;40.642;-7.920;2023-03-01T02:30:14;96569.47;;;4.03;56.51
60874;BME280;46715;40.642;-7.920;2023-03-01T02:32:16;96567.75;;;3.97;56.11
60874;BME280;46715;40.642;-7.920;2023-03-01T02:34:25;96576.16;;;3.92;56.53
60874;BME280;46715;40.642;-7.920;2023-03-01T02:36:35;96581.72;;;4.07;55.66
60874;BME280;46715;40.642;-7.920;2023-03-01T02:38:36;96569.72;;;4.13;55.48
60874;BME280;46715;40.642;-7.920;2023-03-01T02:40:38;96563.38;;;3.97;55.67
60874;BME280;46715;40.642;-7.920;2023-03-01T02:43:00;96558.34;;;4.02;54.95
60874;BME280;46715;40.642;-7.920;2023-03-01T02:45:01;96564.69;;;3.88;55.18
60874;BME280;46715;40.642;-7.920;2023-03-01T02:47:03;96551.78;;;3.88;54.85
60874;BME280;46715;40.642;-7.920;2023-03-01T02:49:27;96554.00;;;3.84;54.69
60874;BME280;46715;40.642;-7.920;2023-03-01T02:56:30;96523.25;;;3.83;54.09
60874;BME280;46715;40.642;-7.920;2023-03-01T02:58:31;96522.34;;;3.77;54.39
60874;BME280;46715;40.642;-7.920;2023-03-01T03:00:36;96509.00;;;3.80;53.85
60874;BME280;46715;40.642;-7.920;2023-03-01T03:02:40;96513.16;;;3.81;53.68
60874;BME280;46715;40.642;-7.920;2023-03-01T03:04:50;96510.59;;;3.81;54.26
60874;BME280;46715;40.642;-7.920;2023-03-01T03:06:52;96506.53;;;3.73;53.71
60874;BME280;46715;40.642;-7.920;2023-03-01T03:08:53;96506.19;;;3.51;53.90
60874;BME280;46715;40.642;-7.920;2023-03-01T03:10:54;96499.63;;;3.67;52.98
60874;BME280;46715;40.642;-7.920;2023-03-01T03:12:58;96511.25;;;3.58;53.10
60874;BME280;46715;40.642;-7.920;2023-03-01T03:15:00;96500.94;;;3.58;53.13
60874;BME280;46715;40.642;-7.920;2023-03-01T03:17:01;96504.00;;;3.48;53.44
60874;BME280;46715;40.642;-7.920;2023-03-01T03:19:06;96502.72;;;3.57;53.22
60874;BME280;46715;40.642;-7.920;2023-03-01T03:21:11;96483.75;;;3.52;53.16
60874;BME280;46715;40.642;-7.920;2023-03-01T03:23:13;96482.81;;;3.65;52.46
60874;BME280;46715;40.642;-7.920;2023-03-01T03:25:15;96478.88;;;3.62;52.26
60874;BME280;46715;40.642;-7.920;2023-03-01T03:27:15;96466.81;;;3.74;52.25
60874;BME280;46715;40.642;-7.920;2023-03-01T03:29:16;96460.81;;;3.62;52.72
60874;BME280;46715;40.642;-7.920;2023-03-01T03:31:17;96458.97;;;3.69;52.33
60874;BME280;46715;40.642;-7.920;2023-03-01T03:33:19;96451.69;;;3.48;53.09
60874;BME280;46715;40.642;-7.920;2023-03-01T03:35:28;96467.13;;;3.48;53.20
60874;BME280;46715;40.642;-7.920;2023-03-01T03:37:30;96459.13;;;3.56;53.21
60874;BME280;46715;40.642;-7.920;2023-03-01T03:39:49;96456.38;;;3.51;52.44
60874;BME280;46715;40.642;-7.920;2023-03-01T03:41:50;96457.13;;;3.39;53.70
60874;BME280;46715;40.642;-7.920;2023-03-01T03:43:51;96458.13;;;3.38;52.79
60874;BME280;46715;40.642;-7.920;2023-03-01T03:45:51;96459.91;;;3.38;53.28
60874;BME280;46715;40.642;-7.920;2023-03-01T03:47:52;96450.53;;;3.44;52.21
60874;BME280;46715;40.642;-7.920;2023-03-01T03:49:53;96457.06;;;3.46;52.57
60874;BME280;46715;40.642;-7.920;2023-03-01T03:51:54;96453.91;;;3.26;53.30
60874;BME280;46715;40.642;-7.920;2023-03-01T03:53:55;96462.63;;;3.24;53.02
60874;BME280;46715;40.642;-7.920;2023-03-01T03:55:55;96457.84;;;3.28;52.56
60874;BME280;46715;40.642;-7.920;2023-03-01T03:58:00;96464.38;;;3.31;53.44
60874;BME280;46715;40.642;-7.920;2023-03-01T04:00:03;96458.78;;;3.15;53.19
60874;BME280;46715;40.642;-7.920;2023-03-01T04:02:12;96458.31;;;3.00;53.91
60874;BME280;46715;40.642;-7.920;2023-03-01T04:04:13;96451.50;;;2.87;53.58
60874;BME280;46715;40.642;-7.920;2023-03-01T04:06:14;96463.06;;;3.03;54.15
60874;BME280;46715;40.642;-7.920;2023-03-01T04:08:15;96459.06;;;3.07;53.56
60874;BME280;46715;40.642;-7.920;2023-03-01T04:10:17;96449.97;;;3.04;53.51
60874;BME280;46715;40.642;-7.920;2023-03-01T04:12:18;96461.53;;;2.95;53.89
60874;BME280;46715;40.642;-7.920;2023-03-01T04:14:23;96464.38;;;2.87;54.18
60874;BME280;46715;40.642;-7.920;2023-03-01T04:16:24;96462.63;;;2.87;54.54
60874;BME280;46715;40.642;-7.920;2023-03-01T04:18:25;96461.09;;;2.98;53.64
60874;BME280;46715;40.642;-7.920;2023-03-01T04:20:29;96447.06;;;2.94;53.19
60874;BME280;46715;40.642;-7.920;2023-03-01T04:22:31;96462.69;;;2.99;53.09
60874;BME280;46715;40.642;-7.920;2023-03-01T04:24:32;96443.00;;;2.86;53.78
60874;BME280;46715;40.642;-7.920;2023-03-01T04:26:33;96443.72;;;2.75;54.50
60874;BME280;46715;40.642;-7.920;2023-03-01T04:28:36;96449.34;;;2.65;54.45
60874;BME280;46715;40.642;-7.920;2023-03-01T04:30:38;96449.22;;;2.53;55.10
60874;BME280;46715;40.642;-7.920;2023-03-01T04:32:39;96450.44;;;2.51;54.95
60874;BME280;46715;40.642;-7.920;2023-03-01T04:34:40;96443.69;;;2.50;55.51
60874;BME280;46715;40.642;-7.920;2023-03-01T04:36:41;96442.19;;;2.42;55.51
60874;BME280;46715;40.642;-7.920;2023-03-01T04:38:42;96438.03;;;2.41;55.76
60874;BME280;46715;40.642;-7.920;2023-03-01T04:40:47;96439.03;;;2.40;55.36
60874;BME280;46715;40.642;-7.920;2023-03-01T04:42:49;96442.03;;;2.37;55.84
60874;BME280;46715;40.642;-7.920;2023-03-01T04:44:49;96457.69;;;2.35;55.69
60874;BME280;46715;40.642;-7.920;2023-03-01T04:46:53;96447.47;;;2.22;56.75
60874;BME280;46715;40.642;-7.920;2023-03-01T04:48:54;96442.75;;;2.19;56.85
60874;BME280;46715;40.642;-7.920;2023-03-01T04:50:55;96458.91;;;2.26;56.76
60874;BME280;46715;40.642;-7.920;2023-03-01T04:52:56;96448.50;;;2.21;56.77
60874;BME280;46715;40.642;-7.920;2023-03-01T04:55:00;96439.81;;;2.15;57.18
60874;BME280;46715;40.642;-7.920;2023-03-01T04:57:01;96454.66;;;2.13;56.80
60874;BME280;46715;40.642;-7.920;2023-03-01T04:59:03;96455.25;;;2.15;56.99
60874;BME280;46715;40.642;-7.920;2023-03-01T05:01:13;96449.56;;;2.07;56.69
60874;BME280;46715;40.642;-7.920;2023-03-01T05:03:18;96453.19;;;1.99;57.31
60874;BME280;46715;40.642;-7.920;2023-03-01T05:05:20;96454.72;;;2.00;56.85
60874;BME280;46715;40.642;-7.920;2023-03-01T05:07:22;96455.91;;;2.04;57.40
60874;BME280;46715;40.642;-7.920;2023-03-01T05:09:25;96463.03;;;2.02;56.92
60874;BME280;46715;40.642;-7.920;2023-03-01T05:11:25;96466.94;;;2.11;57.08
60874;BME280;46715;40.642;-7.920;2023-03-01T05:13:28;96470.34;;;2.05;57.38
60874;BME280;46715;40.642;-7.920;2023-03-01T05:15:31;96471.75;;;2.01;57.40
60874;BME280;46715;40.642;-7.920;2023-03-01T05:17:33;96473.50;;;2.07;57.86
60874;BME280;46715;40.642;-7.920;2023-03-01T05:19:35;96472.94;;;1.98;57.98
60874;BME280;46715;40.642;-7.920;2023-03-01T05:21:36;96477.56;;;1.83;58.00
60874;BME280;46715;40.642;-7.920;2023-03-01T05:23:56;96479.63;;;1.67;58.43
60874;BME280;46715;40.642;-7.920;2023-03-01T05:26:00;96480.88;;;1.51;58.63
60874;BME280;46715;40.642;-7.920;2023-03-01T05:28:03;96479.13;;;1.39;58.58
60874;BME280;46715;40.642;-7.920;2023-03-01T05:30:05;96484.13;;;1.27;58.83
60874;BME280;46715;40.642;-7.920;2023-03-01T05:32:13;96475.44;;;1.21;59.73
60874;BME280;46715;40.642;-7.920;2023-03-01T05:34:15;96480.38;;;1.16;60.59
60874;BME280;46715;40.642;-7.920;2023-03-01T05:36:16;96479.63;;;1.02;61.42
60874;BME280;46715;40.642;-7.920;2023-03-01T05:38:18;96475.47;;;0.94;61.69
60874;BME280;46715;40.642;-7.920;2023-03-01T05:40:21;96481.00;;;1.05;61.63
60874;BME280;46715;40.642;-7.920;2023-03-01T05:42:22;96483.59;;;0.98;61.92
60874;BME280;46715;40.642;-7.920;2023-03-01T05:44:24;96490.09;;;0.94;62.16
60874;BME280;46715;40.642;-7.920;2023-03-01T05:46:25;96486.34;;;0.90;62.67
60874;BME280;46715;40.642;-7.920;2023-03-01T05:48:26;96480.22;;;0.97;61.89
60874;BME280;46715;40.642;-7.920;2023-03-01T05:50:32;96482.19;;;0.95;62.39
60874;BME280;46715;40.642;-7.920;2023-03-01T05:52:34;96486.91;;;1.12;62.05
60874;BME280;46715;40.642;-7.920;2023-03-01T05:54:35;96496.19;;;1.19;61.68
60874;BME280;46715;40.642;-7.920;2023-03-01T05:56:36;96499.16;;;1.16;61.73
60874;BME280;46715;40.642;-7.920;2023-03-01T05:58:37;96496.81;;;1.01;61.95
60874;BME280;46715;40.642;-7.920;2023-03-01T06:00:39;96483.22;;;0.88;62.05
60874;BME280;46715;40.642;-7.920;2023-03-01T06:02:40;96485.38;;;0.84;62.53
60874;BME280;46715;40.642;-7.920;2023-03-01T06:04:41;96488.53;;;0.79;62.80
60874;BME280;46715;40.642;-7.920;2023-03-01T06:06:42;96491.69;;;0.75;62.98
60874;BME280;46715;40.642;-7.920;2023-03-01T06:08:43;96492.28;;;0.77;63.21
60874;BME280;46715;40.642;-7.920;2023-03-01T06:10:43;96489.94;;;0.82;63.47
60874;BME280;46715;40.642;-7.920;2023-03-01T06:12:44;96485.38;;;0.77;64.31
60874;BME280;46715;40.642;-7.920;2023-03-01T06:14:46;96481.81;;;0.85;63.94
60874;BME280;46715;40.642;-7.920;2023-03-01T06:16:47;96481.44;;;0.88;64.36
60874;BME280;46715;40.642;-7.920;2023-03-01T06:18:48;96485.16;;;0.99;64.00
60874;BME280;46715;40.642;-7.920;2023-03-01T06:20:54;96489.28;;;1.00;64.15
60874;BME280;46715;40.642;-7.920;2023-03-01T06:22:56;96496.63;;;1.10;63.89
60874;BME280;46715;40.642;-7.920;2023-03-01T06:24:57;96498.16;;;1.11;63.50
60874;BME280;46715;40.642;-7.920;2023-03-01T06:26:58;96492.25;;;1.17;63.06
60874;BME280;46715;40.642;-7.920;2023-03-01T06:28:59;96499.94;;;1.17;63.52
60874;BME280;46715;40.642;-7.920;2023-03-01T06:30:59;96496.56;;;1.16;63.35
60874;BME280;46715;40.642;-7.920;2023-03-01T06:33:01;96501.13;;;1.21;62.72
60874;BME280;46715;40.642;-7.920;2023-03-01T06:35:03;96504.28;;;1.23;62.66
60874;BME280;46715;40.642;-7.920;2023-03-01T06:37:06;96492.25;;;1.10;63.31
60874;BME280;46715;40.642;-7.920;2023-03-01T06:39:07;96496.00;;;1.14;63.22
60874;BME280;46715;40.642;-7.920;2023-03-01T06:41:08;96500.72;;;1.17;63.35
60874;BME280;46715;40.642;-7.920;2023-03-01T06:43:09;96503.50;;;1.23;62.96
60874;BME280;46715;40.642;-7.920;2023-03-01T06:45:10;96496.38;;;1.25;62.72
60874;BME280;46715;40.642;-7.920;2023-03-01T06:47:11;96502.13;;;1.13;63.34
60874;BME280;46715;40.642;-7.920;2023-03-01T06:49:12;96503.31;;;1.04;63.73
60874;BME280;46715;40.642;-7.920;2023-03-01T06:51:13;96502.13;;;1.07;63.98
60874;BME280;46715;40.642;-7.920;2023-03-01T06:53:14;96508.66;;;1.09;63.62
60874;BME280;46715;40.642;-7.920;2023-03-01T06:55:14;96501.91;;;1.08;63.95
60874;BME280;46715;40.642;-7.920;2023-03-01T06:57:15;96499.75;;;1.12;63.35
60874;BME280;46715;40.642;-7.920;2023-03-01T06:59:17;96498.38;;;1.09;63.66
60874;BME280;46715;40.642;-7.920;2023-03-01T07:01:19;96500.38;;;1.14;63.43
60874;BME280;46715;40.642;-7.920;2023-03-01T07:03:20;96505.88;;;1.11;63.71
60874;BME280;46715;40.642;-7.920;2023-03-01T07:05:21;96501.75;;;1.10;63.65
60874;BME280;46715;40.642;-7.920;2023-03-01T07:07:22;96502.31;;;1.05;63.66
60874;BME280;46715;40.642;-7.920;2023-03-01T07:09:23;96502.94;;;1.00;63.81
60874;BME280;46715;40.642;-7.920;2023-03-01T07:11:24;96499.19;;;1.03;63.81
60874;BME280;46715;40.642;-7.920;2023-03-01T07:13:25;96505.31;;;1.02;64.21
60874;BME280;46715;40.642;-7.920;2023-03-01T07:15:26;96514.38;;;1.05;64.10
60874;BME280;46715;40.642;-7.920;2023-03-01T07:17:27;96504.50;;;1.08;63.77
60874;BME280;46715;40.642;-7.920;2023-03-01T07:19:28;96518.50;;;1.19;63.27
60874;BME280;46715;40.642;-7.920;2023-03-01T07:21:30;96520.28;;;1.18;63.32
60874;BME280;46715;40.642;-7.920;2023-03-01T07:23:31;96513.78;;;1.16;63.23
60874;BME280;46715;40.642;-7.920;2023-03-01T07:25:32;96518.91;;;1.23;63.20
60874;BME280;46715;40.642;-7.920;2023-03-01T07:27:33;96519.88;;;1.22;63.21
60874;BME280;46715;40.642;-7.920;2023-03-01T07:29:34;96524.41;;;1.33;62.64
60874;BME280;46715;40.642;-7.920;2023-03-01T07:31:36;96514.94;;;1.33;62.68
60874;BME280;46715;40.642;-7.920;2023-03-01T07:33:37;96515.91;;;1.39;62.72
60874;BME280;46715;40.642;-7.920;2023-03-01T07:35:38;96524.97;;;1.48;62.24
60874;BME280;46715;40.642;-7.920;2023-03-01T07:37:39;96531.47;;;1.58;61.90
60874;BME280;46715;40.642;-7.920;2023-03-01T07:39:40;96535.69;;;1.97;61.33
60874;BME280;46715;40.642;-7.920;2023-03-01T07:41:41;96526.28;;;2.48;59.25
60874;BME280;46715;40.642;-7.920;2023-03-01T07:43:42;96528.03;;;3.05;56.98
60874;BME280;46715;40.642;-7.920;2023-03-01T07:45:43;96522.56;;;3.75;55.30
60874;BME280;46715;40.642;-7.920;2023-03-01T07:47:44;96528.81;;;4.59;53.47
60874;BME280;46715;40.642;-7.920;2023-03-01T07:49:45;96537.28;;;5.25;51.08
60874;BME280;46715;40.642;-7.920;2023-03-01T07:51:45;96536.47;;;5.72;49.43
60874;BME280;46715;40.642;-7.920;2023-03-01T07:53:47;96540.75;;;6.19;48.55
60874;BME280;46715;40.642;-7.920;2023-03-01T07:55:48;96537.28;;;6.76;46.90
60874;BME280;46715;40.642;-7.920;2023-03-01T07:57:49;96529.66;;;7.04;45.26
60874;BME280;46715;40.642;-7.920;2023-03-01T07:59:50;96536.63;;;7.59;43.94
60874;BME280;46715;40.642;-7.920;2023-03-01T08:01:51;96533.31;;;8.35;43.74
60874;BME280;46715;40.642;-7.920;2023-03-01T08:03:51;96526.84;;;8.98;41.33
60874;BME280;46715;40.642;-7.920;2023-03-01T08:05:53;96546.09;;;8.97;41.80
60874;BME280;46715;40.642;-7.920;2023-03-01T08:07:54;96543.34;;;9.62;40.61
60874;BME280;46715;40.642;-7.920;2023-03-01T08:09:56;96545.97;;;10.35;39.52
60874;BME280;46715;40.642;-7.920;2023-03-01T08:11:57;96552.06;;;9.88;39.06
60874;BME280;46715;40.642;-7.920;2023-03-01T08:14:01;96545.19;;;10.45;38.08
60874;BME280;46715;40.642;-7.920;2023-03-01T08:16:07;96547.84;;;10.97;37.35
60874;BME280;46715;40.642;-7.920;2023-03-01T08:18:08;96541.81;;;11.22;36.25
60874;BME280;46715;40.642;-7.920;2023-03-01T08:20:09;96544.00;;;11.85;35.55
60874;BME280;46715;40.642;-7.920;2023-03-01T08:22:17;96537.31;;;12.69;34.41
60874;BME280;46715;40.642;-7.920;2023-03-01T08:24:17;96533.72;;;12.89;33.33
60874;BME280;46715;40.642;-7.920;2023-03-01T08:26:20;96541.53;;;12.94;33.07
60874;BME280;46715;40.642;-7.920;2023-03-01T08:28:21;96537.75;;;12.76;33.06
60874;BME280;46715;40.642;-7.920;2023-03-01T08:30:22;96545.28;;;12.48;33.82
60874;BME280;46715;40.642;-7.920;2023-03-01T08:32:24;96537.63;;;12.91;32.87
60874;BME280;46715;40.642;-7.920;2023-03-01T08:34:25;96536.38;;;12.84;33.04
60874;BME280;46715;40.642;-7.920;2023-03-01T08:36:30;96530.97;;;13.82;31.99
60874;BME280;46715;40.642;-7.920;2023-03-01T08:38:35;96534.06;;;13.65;31.60
60874;BME280;46715;40.642;-7.920;2023-03-01T08:40:36;96536.44;;;14.29;30.91
60874;BME280;46715;40.642;-7.920;2023-03-01T08:42:37;96542.47;;;14.68;30.12
60874;BME280;46715;40.642;-7.920;2023-03-01T08:44:38;96533.75;;;14.34;29.60
60874;BME280;46715;40.642;-7.920;2023-03-01T08:46:41;96532.16;;;14.52;29.79
60874;BME280;46715;40.642;-7.920;2023-03-01T08:48:42;96528.66;;;15.09;29.89
60874;BME280;46715;40.642;-7.920;2023-03-01T08:50:44;96533.25;;;14.70;29.98
60874;BME280;46715;40.642;-7.920;2023-03-01T08:52:45;96533.50;;;15.76;28.88
60874;BME280;46715;40.642;-7.920;2023-03-01T08:54:48;96526.81;;;16.21;27.69
60874;BME280;46715;40.642;-7.920;2023-03-01T08:56:49;96530.66;;;14.46;29.58
60874;BME280;46715;40.642;-7.920;2023-03-01T08:58:51;96532.81;;;15.43;28.80
60874;BME280;46715;40.642;-7.920;2023-03-01T09:00:51;96529.50;;;15.79;28.44
60874;BME280;46715;40.642;-7.920;2023-03-01T09:02:53;96530.28;;;15.93;28.60
60874;BME280;46715;40.642;-7.920;2023-03-01T09:04:54;96523.88;;;15.85;27.48
60874;BME280;46715;40.642;-7.920;2023-03-01T09:06:55;96531.72;;;15.30;28.22
60874;BME280;46715;40.642;-7.920;2023-03-01T09:08:56;96523.53;;;15.17;28.66
60874;BME280;46715;40.642;-7.920;2023-03-01T09:10:56;96526.94;;;16.15;27.70
60874;BME280;46715;40.642;-7.920;2023-03-01T09:12:57;96521.88;;;16.19;27.03
60874;BME280;46715;40.642;-7.920;2023-03-01T09:14:59;96520.16;;;16.37;27.17
60874;BME280;46715;40.642;-7.920;2023-03-01T09:17:00;96522.63;;;16.19;26.86
60874;BME280;46715;40.642;-7.920;2023-03-01T09:19:04;96514.41;;;15.98;27.30
60874;BME280;46715;40.642;-7.920;2023-03-01T09:21:07;96509.03;;;16.04;27.30
60874;BME280;46715;40.642;-7.920;2023-03-01T09:23:08;96517.59;;;16.46;27.04
60874;BME280;46715;40.642;-7.920;2023-03-01T09:25:09;96508.00;;;16.50;26.83
60874;BME280;46715;40.642;-7.920;2023-03-01T09:27:10;96501.72;;;17.05;26.77
60874;BME280;46715;40.642;-7.920;2023-03-01T09:29:14;96500.16;;;16.36;25.78
60874;BME280;46715;40.642;-7.920;2023-03-01T09:31:15;96500.28;;;15.66;27.03
60874;BME280;46715;40.642;-7.920;2023-03-01T09:33:16;96499.06;;;14.18;29.11
60874;BME280;46715;40.642;-7.920;2023-03-01T09:35:17;96498.59;;;13.73;29.79
60874;BME280;46715;40.642;-7.920;2023-03-01T09:37:18;96504.25;;;14.23;29.72
60874;BME280;46715;40.642;-7.920;2023-03-01T09:39:19;96494.19;;;14.82;29.05
60874;BME280;46715;40.642;-7.920;2023-03-01T09:43:55;96485.41;;;15.76;27.40
60874;BME280;46715;40.642;-7.920;2023-03-01T09:46:04;96477.63;;;15.15;27.61
60874;BME280;46715;40.642;-7.920;2023-03-01T09:48:12;96484.03;;;15.50;27.73
60874;BME280;46715;40.642;-7.920;2023-03-01T09:50:19;96486.25;;;15.15;28.16
60874;BME280;46715;40.642;-7.920;2023-03-01T09:52:40;96494.75;;;15.54;27.81
60874;BME280;46715;40.642;-7.920;2023-03-01T09:54:42;96477.28;;;16.00;27.11
60874;BME280;46715;40.642;-7.920;2023-03-01T09:59:33;96486.31;;;14.30;28.91
60874;BME280;46715;40.642;-7.920;2023-03-01T10:01:50;96481.56;;;14.98;28.71
60874;BME280;46715;40.642;-7.920;2023-03-01T10:06:28;96479.16;;;14.88;28.41
60874;BME280;46715;40.642;-7.920;2023-03-01T10:10:39;96470.22;;;14.18;30.54
60874;BME280;46715;40.642;-7.920;2023-03-01T10:12:41;96463.22;;;14.13;30.06
60874;BME280;46715;40.642;-7.920;2023-03-01T10:19:05;96459.44;;;10.49;35.38
60874;BME280;46715;40.642;-7.920;2023-03-01T10:21:16;96463.25;;;9.89;36.48
60874;BME280;46715;40.642;-7.920;2023-03-01T10:23:18;96453.50;;;9.59;37.28
60874;BME280;46715;40.642;-7.920;2023-03-01T10:26:05;96447.13;;;9.19;38.29
60874;BME280;46715;40.642;-7.920;2023-03-01T10:28:05;96461.97;;;9.24;39.07
60874;BME280;46715;40.642;-7.920;2023-03-01T10:30:36;96461.50;;;9.32;38.69
60874;BME280;46715;40.642;-7.920;2023-03-01T10:32:44;96454.44;;;9.27;39.01
60874;BME280;46715;40.642;-7.920;2023-03-01T10:34:44;96450.56;;;9.35;38.86
60874;BME280;46715;40.642;-7.920;2023-03-01T10:36:51;96459.91;;;9.31;39.16
60874;BME280;46715;40.642;-7.920;2023-03-01T10:38:57;96457.88;;;9.43;38.88
60874;BME280;46715;40.642;-7.920;2023-03-01T10:41:04;96458.50;;;9.71;38.41
60874;BME280;46715;40.642;-7.920;2023-03-01T10:43:11;96454.38;;;9.90;37.90
60874;BME280;46715;40.642;-7.920;2023-03-01T10:47:29;96462.13;;;9.60;38.00
60874;BME280;46715;40.642;-7.920;2023-03-01T10:49:31;96453.78;;;9.52;37.75
60874;BME280;46715;40.642;-7.920;2023-03-01T10:51:32;96447.50;;;9.53;37.26
60874;BME280;46715;40.642;-7.920;2023-03-01T10:53:38;96452.22;;;9.62;37.62
60874;BME280;46715;40.642;-7.920;2023-03-01T10:55:41;96448.06;;;9.61;37.99
60874;BME280;46715;40.642;-7.920;2023-03-01T10:57:42;96450.06;;;9.38;38.70
60874;BME280;46715;40.642;-7.920;2023-03-01T10:59:42;96448.06;;;9.55;38.82
60874;BME280;46715;40.642;-7.920;2023-03-01T11:01:43;96452.41;;;9.39;38.38
60874;BME280;46715;40.642;-7.920;2023-03-01T11:03:44;96444.66;;;9.50;38.34
60874;BME280;46715;40.642;-7.920;2023-03-01T11:07:56;96446.72;;;9.43;38.34
60874;BME280;46715;40.642;-7.920;2023-03-01T11:10:11;96435.75;;;9.41;38.51
60874;BME280;46715;40.642;-7.920;2023-03-01T11:12:18;96442.88;;;9.61;39.14